createdAt,value
2018-03-04T00:00:12.431Z,91.60
2018-03-04T00:02:40.638Z,91.80
2018-03-04T00:05:08.422Z,91.80
2018-03-04T00:07:36.739Z,92.10
2018-03-04T00:10:06.351Z,92.40
2018-03-04T00:12:34.820Z,93.00
2018-03-04T00:15:02.388Z,93.20
2018-03-04T00:17:30.008Z,93.60
2018-03-04T00:19:59.094Z,93.70
2018-03-04T00:22:40.196Z,93.80
2018-03-04T00:25:09.281Z,93.30
2018-03-04T00:27:37.929Z,93.10
2018-03-04T00:30:06.618Z,93.20
2018-03-04T00:32:36.375Z,93.30
2018-03-04T00:35:04.937Z,93.30
2018-03-04T00:37:33.570Z,93.00
2018-03-04T00:40:02.929Z,93.20
2018-03-04T00:42:34.004Z,93.70
2018-03-04T00:45:03.228Z,93.60
2018-03-04T00:47:31.154Z,93.50
2018-03-04T00:50:01.462Z,93.60
2018-03-04T00:52:29.539Z,93.70
2018-03-04T00:54:58.668Z,93.80
2018-03-04T00:57:28.153Z,94.20
2018-03-04T00:59:56.724Z,94.20
2018-03-04T01:02:26.315Z,94.60
2018-03-04T01:04:55.710Z,94.70
2018-03-04T01:07:24.143Z,94.90
2018-03-04T01:09:51.814Z,94.80
2018-03-04T01:12:19.392Z,94.80
2018-03-04T01:14:46.975Z,95.00
2018-03-04T01:17:15.755Z,95.20
2018-03-04T01:19:44.753Z,95.00
2018-03-04T01:22:12.343Z,95.00
2018-03-04T01:24:39.908Z,95.00
2018-03-04T01:27:09.462Z,94.70
2018-03-04T01:29:38.825Z,94.90
2018-03-04T01:32:06.412Z,94.90
2018-03-04T01:34:36.527Z,94.80
2018-03-04T01:37:04.145Z,94.90
2018-03-04T01:39:34.006Z,94.60
2018-03-04T01:42:04.523Z,94.50
2018-03-04T01:44:32.665Z,94.50
2018-03-04T01:47:01.300Z,94.60
2018-03-04T01:49:30.214Z,95.10
2018-03-04T01:51:59.429Z,95.10
2018-03-04T01:54:29.263Z,95.30
2018-03-04T01:56:57.637Z,95.10
2018-03-04T01:59:26.172Z,95.00
2018-03-04T02:01:55.253Z,94.50
2018-03-04T02:04:24.087Z,94.50
2018-03-04T02:06:51.664Z,94.40
2018-03-04T02:09:21.576Z,94.80
2018-03-04T02:11:49.191Z,94.50
2018-03-04T02:14:17.627Z,94.00
2018-03-04T02:16:46.729Z,94.10
2018-03-04T02:19:14.322Z,94.70
2018-03-04T02:21:42.825Z,94.60
2018-03-04T02:24:11.718Z,94.60
2018-03-04T02:26:44.925Z,94.70
2018-03-04T02:29:14.323Z,94.60
2018-03-04T02:31:43.423Z,94.40
2018-03-04T02:34:11.913Z,94.80
2018-03-04T02:36:40.002Z,94.70
2018-03-04T02:39:08.702Z,94.20
2018-03-04T02:41:37.308Z,94.60
2018-03-04T02:44:07.028Z,94.70
2018-03-04T02:46:37.222Z,94.70
2018-03-04T02:49:05.460Z,94.90
2018-03-04T02:51:33.796Z,95.20
2018-03-04T02:54:01.840Z,95.30
2018-03-04T02:56:29.789Z,95.30
2018-03-04T02:58:57.558Z,95.70
2018-03-04T03:01:27.733Z,95.80
2018-03-04T03:03:57.458Z,95.90
2018-03-04T03:06:29.803Z,95.40
2018-03-04T03:09:00.189Z,95.00
2018-03-04T03:11:31.320Z,95.00
2018-03-04T03:14:01.515Z,95.20
2018-03-04T03:16:32.023Z,95.10
2018-03-04T03:19:02.231Z,95.10
2018-03-04T03:21:33.351Z,95.20
2018-03-04T03:24:03.170Z,95.20
2018-03-04T03:26:32.408Z,95.40
2018-03-04T03:29:02.439Z,95.20
2018-03-04T03:31:31.703Z,95.20
2018-03-04T03:34:05.880Z,95.40
2018-03-04T03:36:36.266Z,95.10
2018-03-04T03:39:07.201Z,94.70
2018-03-04T03:41:37.709Z,95.20
2018-03-04T03:44:05.544Z,95.10
2018-03-04T03:46:38.066Z,95.50
2018-03-04T03:49:08.275Z,96.30
2018-03-04T03:51:35.963Z,96.30
2018-03-04T03:54:03.912Z,96.60
2018-03-04T03:56:34.278Z,96.60
2018-03-04T03:59:02.651Z,96.80
2018-03-04T04:01:30.523Z,97.20
2018-03-04T04:04:01.298Z,97.60
2018-03-04T04:06:31.539Z,97.70
2018-03-04T04:09:04.781Z,97.70
2018-03-04T04:11:33.973Z,97.70
2018-03-04T04:14:01.555Z,98.10
2018-03-04T04:16:29.146Z,98.30
2018-03-04T04:18:56.720Z,98.50
2018-03-04T04:21:30.121Z,98.30
2018-03-04T04:23:59.397Z,98.30
2018-03-04T04:26:28.448Z,98.10
2018-03-04T04:28:57.304Z,98.20
2018-03-04T04:31:26.718Z,98.20
2018-03-04T04:33:56.073Z,98.10
2018-03-04T04:36:25.197Z,97.90
2018-03-04T04:38:57.036Z,98.20
2018-03-04T04:41:27.158Z,98.20
2018-03-04T04:43:56.935Z,98.40
2018-03-04T04:46:26.257Z,98.60
2018-03-04T04:48:55.853Z,98.70
2018-03-04T04:51:26.433Z,98.60
2018-03-04T04:53:54.951Z,98.80
2018-03-04T04:56:25.720Z,98.80
2018-03-04T04:58:55.244Z,98.80
2018-03-04T05:01:23.805Z,98.70
2018-03-04T05:03:53.233Z,98.80
2018-03-04T05:06:21.849Z,98.80
2018-03-04T05:08:55.869Z,98.70
2018-03-04T05:11:24.331Z,98.70
2018-03-04T05:13:53.277Z,98.70
2018-03-04T05:16:24.004Z,98.60
2018-03-04T05:18:52.589Z,98.60
2018-03-04T05:21:21.896Z,98.50
2018-03-04T05:23:51.139Z,98.30
2018-03-04T05:26:22.554Z,97.90
2018-03-04T05:28:50.208Z,97.80
2018-03-04T05:31:17.828Z,97.60
2018-03-04T05:33:48.200Z,97.00
2018-03-04T05:36:18.493Z,97.40
2018-03-04T05:38:46.154Z,97.60
2018-03-04T05:41:13.765Z,97.40
2018-03-04T05:43:41.761Z,97.10
2018-03-04T05:46:10.054Z,97.10
2018-03-04T05:48:38.781Z,97.10
2018-03-04T05:51:07.155Z,97.40
2018-03-04T05:53:37.172Z,97.60
2018-03-04T05:56:07.003Z,97.50
2018-03-04T05:58:36.434Z,97.50
2018-03-04T06:01:05.280Z,97.40
2018-03-04T06:03:32.852Z,97.60
2018-03-04T06:06:00.457Z,97.40
2018-03-04T06:08:28.082Z,97.00
2018-03-04T06:10:58.161Z,96.80
2018-03-04T06:13:26.416Z,96.80
2018-03-04T06:15:55.057Z,96.90
2018-03-04T06:18:23.852Z,97.20
2018-03-04T06:20:53.536Z,97.00
2018-03-04T06:23:21.053Z,97.00
2018-03-04T06:25:50.248Z,96.80
2018-03-04T06:28:18.166Z,96.60
2018-03-04T06:30:45.748Z,96.50
2018-03-04T06:33:15.285Z,96.90
2018-03-04T06:35:43.576Z,96.90
2018-03-04T06:38:12.073Z,96.90
2018-03-04T06:40:39.644Z,97.10
2018-03-04T06:43:07.198Z,97.00
2018-03-04T06:45:34.936Z,96.70
2018-03-04T06:48:03.962Z,96.50
2018-03-04T06:50:31.541Z,96.30
2018-03-04T06:52:59.530Z,95.60
2018-03-04T06:55:27.409Z,95.60
2018-03-04T06:57:55.391Z,96.00
2018-03-04T07:00:24.008Z,96.00
2018-03-04T07:02:52.566Z,96.00
2018-03-04T07:05:20.116Z,96.00
2018-03-04T07:07:49.109Z,95.80
2018-03-04T07:10:16.724Z,96.00
2018-03-04T07:12:45.472Z,95.40
2018-03-04T07:15:13.296Z,95.40
2018-03-04T07:17:42.778Z,94.90
2018-03-04T07:20:12.135Z,94.90
2018-03-04T07:22:40.442Z,94.50
2018-03-04T07:25:08.890Z,94.20
2018-03-04T07:27:36.958Z,94.00
2018-03-04T07:30:05.387Z,94.10
2018-03-04T07:32:32.965Z,94.00
2018-03-04T07:35:02.324Z,93.30
2018-03-04T07:37:31.002Z,93.30
2018-03-04T07:39:59.902Z,93.20
2018-03-04T07:42:29.268Z,93.40
2018-03-04T07:44:58.574Z,92.90
2018-03-04T07:47:26.261Z,92.90
2018-03-04T07:49:54.600Z,93.00
2018-03-04T07:52:23.276Z,92.60
2018-03-04T07:54:52.101Z,92.70
2018-03-04T07:57:19.851Z,92.80
2018-03-04T07:59:48.566Z,92.90
2018-03-04T08:02:17.908Z,92.70
2018-03-04T08:04:46.539Z,92.20
2018-03-04T08:07:15.454Z,92.20
2018-03-04T08:09:45.014Z,92.20
2018-03-04T08:12:16.364Z,92.30
2018-03-04T08:14:45.261Z,92.10
2018-03-04T08:17:12.825Z,91.80
2018-03-04T08:19:40.386Z,91.40
2018-03-04T08:22:09.749Z,91.30
2018-03-04T08:24:40.497Z,90.70
2018-03-04T08:27:22.405Z,90.80
2018-03-04T08:29:51.394Z,90.80
2018-03-04T08:32:19.009Z,90.60
2018-03-04T08:34:48.739Z,90.00
2018-03-04T08:37:17.730Z,89.40
2018-03-04T08:39:46.553Z,89.20
2018-03-04T08:42:16.298Z,89.20
2018-03-04T08:44:45.310Z,89.00
2018-03-04T08:47:14.326Z,88.70
2018-03-04T08:49:43.890Z,89.00
2018-03-04T08:52:14.009Z,88.20
2018-03-04T08:54:43.571Z,88.20
2018-03-04T08:57:11.541Z,87.50
2018-03-04T08:59:39.806Z,87.50
2018-03-04T09:02:08.533Z,87.40
2018-03-04T09:04:36.469Z,86.90
2018-03-04T09:07:06.165Z,86.00
2018-03-04T09:09:35.615Z,86.00
2018-03-04T09:12:03.270Z,85.80
2018-03-04T09:14:31.843Z,85.50
2018-03-04T09:17:00.458Z,84.50
2018-03-04T09:19:29.350Z,84.40
2018-03-04T09:21:57.034Z,83.80
2018-03-04T09:24:26.580Z,83.10
2018-03-04T09:26:54.864Z,82.80
2018-03-04T09:29:27.949Z,81.70
2018-03-04T09:31:56.041Z,81.70
2018-03-04T09:34:24.387Z,82.00
2018-03-04T09:36:53.350Z,82.90
2018-03-04T09:39:22.934Z,82.90
2018-03-04T09:41:51.301Z,82.20
2018-03-04T09:44:19.527Z,82.60
2018-03-04T09:46:49.495Z,82.70
2018-03-04T09:49:18.061Z,82.60
2018-03-04T09:51:49.398Z,82.10
2018-03-04T09:54:18.703Z,81.50
2018-03-04T09:56:48.209Z,80.70
2018-03-04T09:59:16.969Z,80.70
2018-03-04T10:01:45.293Z,79.80
2018-03-04T10:04:14.617Z,80.30
2018-03-04T10:06:44.411Z,80.90
2018-03-04T10:09:12.839Z,81.30
2018-03-04T10:11:41.172Z,80.00
2018-03-04T10:14:08.795Z,80.00
2018-03-04T10:16:37.663Z,78.90
2018-03-04T10:19:05.312Z,78.00
2018-03-04T10:21:33.913Z,76.70
2018-03-04T10:24:01.899Z,75.80
2018-03-04T10:26:29.881Z,74.60
2018-03-04T10:28:57.668Z,74.60
2018-03-04T10:31:25.274Z,75.20
2018-03-04T10:33:53.795Z,73.80
2018-03-04T10:36:21.792Z,73.00
2018-03-04T10:38:50.306Z,72.50
2018-03-04T10:41:19.298Z,72.70
2018-03-04T10:43:46.933Z,71.10
2018-03-04T10:46:14.476Z,70.00
2018-03-04T10:48:42.089Z,69.50
2018-03-04T10:51:10.057Z,67.70
2018-03-04T10:53:37.685Z,67.70
2018-03-04T10:56:05.284Z,67.80
2018-03-04T10:58:33.295Z,68.20
2018-03-04T11:01:06.422Z,68.20
2018-03-04T11:03:33.967Z,67.10
2018-03-04T11:06:01.554Z,67.30
2018-03-04T11:08:29.846Z,66.40
2018-03-04T11:10:57.883Z,66.10
2018-03-04T11:13:25.415Z,66.10
2018-03-04T11:15:52.969Z,66.70
2018-03-04T11:18:20.553Z,65.80
2018-03-04T11:20:48.853Z,66.10
2018-03-04T11:23:16.595Z,64.50
2018-03-04T11:25:44.134Z,64.20
2018-03-04T11:28:12.610Z,62.10
2018-03-04T11:30:40.169Z,62.10
2018-03-04T11:33:07.751Z,56.90
2018-03-04T11:35:35.316Z,50.40
2018-03-04T11:38:02.957Z,46.10
2018-03-04T11:40:30.537Z,42.10
2018-03-04T11:42:58.627Z,40.50
2018-03-04T11:48:25.981Z,36.50
2018-03-04T11:50:53.983Z,36.50
2018-03-04T11:53:22.893Z,35.40
2018-03-04T11:55:50.490Z,35.40
2018-03-04T11:58:19.692Z,35.00
2018-03-04T12:00:47.298Z,34.80
2018-03-04T12:03:15.657Z,34.40
2018-03-04T12:05:43.198Z,34.80
2018-03-04T12:08:11.480Z,34.40
2018-03-04T12:10:40.068Z,32.40
2018-03-04T12:13:07.666Z,32.40
2018-03-04T12:15:35.624Z,32.50
2018-03-04T12:18:04.531Z,32.20
2018-03-04T12:20:32.479Z,31.40
2018-03-04T12:23:00.510Z,31.40
2018-03-04T12:25:28.290Z,31.40
2018-03-04T12:27:57.093Z,32.30
2018-03-04T12:30:24.812Z,32.00
2018-03-04T12:32:52.587Z,31.90
2018-03-04T12:35:20.419Z,30.40
2018-03-04T12:37:48.265Z,29.90
2018-03-04T12:40:15.941Z,30.20
2018-03-04T12:42:44.750Z,28.80
2018-03-04T12:45:12.391Z,29.30
2018-03-04T12:47:41.722Z,29.60
2018-03-04T12:50:09.533Z,29.60
2018-03-04T12:52:37.516Z,28.70
2018-03-04T12:55:05.484Z,28.20
2018-03-04T12:57:33.043Z,28.20
2018-03-04T13:00:01.139Z,29.10
2018-03-04T13:02:28.679Z,29.10
2018-03-04T13:04:56.715Z,30.30
2018-03-04T13:07:24.303Z,30.30
2018-03-04T13:09:54.107Z,29.30
2018-03-04T13:12:21.691Z,29.30
2018-03-04T13:14:49.381Z,30.50
2018-03-04T13:17:17.014Z,30.60
2018-03-04T13:19:45.002Z,31.80
2018-03-04T13:22:12.603Z,31.80
2018-03-04T13:24:40.192Z,32.20
2018-03-04T13:27:07.777Z,33.40
2018-03-04T13:29:35.328Z,33.20
2018-03-04T13:32:04.245Z,33.20
2018-03-04T13:34:31.801Z,33.30
2018-03-04T13:37:05.644Z,34.60
2018-03-04T13:39:33.386Z,34.70
2018-03-04T13:42:01.034Z,35.00
2018-03-04T13:44:28.709Z,37.00
2018-03-04T13:46:56.276Z,38.70
2018-03-04T13:49:23.916Z,39.50
2018-03-04T13:51:51.479Z,39.70
2018-03-04T13:54:19.040Z,38.50
2018-03-04T13:56:46.585Z,37.90
2018-03-04T13:59:14.179Z,37.30
2018-03-04T14:01:41.754Z,35.80
2018-03-04T14:04:09.313Z,36.40
2018-03-04T14:06:37.141Z,37.90
2018-03-04T14:09:04.713Z,38.80
2018-03-04T14:11:32.268Z,40.50
2018-03-04T14:13:59.837Z,41.40
2018-03-04T14:16:27.431Z,41.90
2018-03-04T14:18:55.006Z,43.00
2018-03-04T14:21:22.982Z,40.50
2018-03-04T14:23:50.936Z,41.10
2018-03-04T14:26:18.886Z,42.90
2018-03-04T14:28:46.452Z,42.90
2018-03-04T14:31:14.023Z,43.90
2018-03-04T14:33:41.556Z,45.80
2018-03-04T14:36:09.144Z,47.50
2018-03-04T14:38:36.694Z,49.20
2018-03-04T14:41:04.272Z,50.80
2018-03-04T14:43:31.811Z,52.30
2018-03-04T14:46:00.222Z,54.00
2018-03-04T14:48:28.156Z,54.40
2018-03-04T14:50:55.734Z,54.40
2018-03-04T14:53:38.472Z,52.60
2018-03-04T14:56:06.102Z,52.70
2018-03-04T14:58:34.505Z,53.40
2018-03-04T15:01:02.075Z,54.10
2018-03-04T15:03:29.607Z,55.30
2018-03-04T15:05:57.578Z,56.50
2018-03-04T15:08:25.564Z,56.30
2018-03-04T15:10:53.190Z,56.30
2018-03-04T15:13:21.719Z,56.00
2018-03-04T15:15:49.294Z,55.30
2018-03-04T15:18:16.864Z,55.90
2018-03-04T15:20:44.430Z,56.60
2018-03-04T15:23:12.045Z,56.80
2018-03-04T15:25:40.070Z,57.00
2018-03-04T15:28:07.602Z,57.00
2018-03-04T15:30:35.197Z,58.20
2018-03-04T15:33:02.785Z,58.60
2018-03-04T15:35:30.817Z,60.70
2018-03-04T15:37:58.396Z,60.70
2018-03-04T15:40:26.047Z,61.70
2018-03-04T15:42:53.626Z,62.90
2018-03-04T15:45:21.177Z,63.10
2018-03-04T15:47:48.753Z,63.90
2018-03-04T15:50:17.290Z,65.90
2018-03-04T15:52:46.019Z,66.30
2018-03-04T15:55:13.994Z,66.80
2018-03-04T15:57:41.964Z,67.50
2018-03-04T16:00:09.531Z,67.50
2018-03-04T16:02:37.504Z,68.40
2018-03-04T16:05:05.453Z,69.00
2018-03-04T16:07:33.419Z,69.70
2018-03-04T16:10:01.022Z,69.70
2018-03-04T16:12:28.592Z,70.70
2018-03-04T16:14:56.240Z,71.20
2018-03-04T16:17:24.717Z,71.90
2018-03-04T16:19:53.143Z,72.60
2018-03-04T16:22:20.804Z,72.80
2018-03-04T16:24:48.485Z,73.10
2018-03-04T16:27:16.034Z,73.40
2018-03-04T16:29:43.588Z,74.10
2018-03-04T16:32:12.062Z,74.50
2018-03-04T16:34:39.645Z,74.90
2018-03-04T16:37:07.236Z,75.20
2018-03-04T16:39:34.802Z,75.60
2018-03-04T16:42:02.401Z,76.10
2018-03-04T16:44:29.944Z,76.30
2018-03-04T16:46:57.507Z,76.40
2018-03-04T16:49:25.102Z,76.70
2018-03-04T16:51:52.678Z,77.20
2018-03-04T16:54:20.669Z,77.30
2018-03-04T16:56:48.731Z,77.30
2018-03-04T16:59:16.282Z,77.70
2018-03-04T17:01:45.231Z,78.40
2018-03-04T17:04:12.819Z,78.40
2018-03-04T17:06:40.357Z,78.50
2018-03-04T17:09:07.930Z,78.60
2018-03-04T17:11:35.481Z,79.00
2018-03-04T17:14:03.041Z,79.40
2018-03-04T17:16:30.625Z,79.40
2018-03-04T17:18:58.618Z,79.90
2018-03-04T17:21:26.207Z,80.00
2018-03-04T17:23:53.817Z,79.90
2018-03-04T17:26:21.371Z,80.00
2018-03-04T17:28:49.345Z,80.50
2018-03-04T17:31:17.299Z,80.50
2018-03-04T17:33:44.895Z,80.50
2018-03-04T17:36:12.491Z,80.60
2018-03-04T17:38:40.063Z,80.60
2018-03-04T17:41:07.627Z,80.50
2018-03-04T17:43:35.188Z,80.70
2018-03-04T17:46:02.760Z,80.90
2018-03-04T17:48:30.334Z,81.00
2018-03-04T17:50:57.914Z,80.90
2018-03-04T17:53:25.905Z,81.10
2018-03-04T17:55:53.454Z,81.10
2018-03-04T17:58:21.047Z,81.30
2018-03-04T18:00:48.679Z,81.30
2018-03-04T18:03:17.177Z,81.50
2018-03-04T18:05:44.737Z,81.60
2018-03-04T18:08:13.198Z,81.70
2018-03-04T18:10:41.048Z,81.50
2018-03-04T18:13:11.174Z,81.70
2018-03-04T18:15:43.462Z,81.70
2018-03-04T18:18:14.966Z,82.00
2018-03-04T18:20:46.787Z,82.00
2018-03-04T18:23:14.752Z,81.90
2018-03-04T18:25:42.379Z,81.90
2018-03-04T18:28:09.982Z,81.90
2018-03-04T18:33:12.009Z,81.50
2018-03-04T18:35:39.670Z,81.50
2018-03-04T18:38:10.297Z,81.50
2018-03-04T18:40:38.345Z,81.50
2018-03-04T18:43:05.965Z,81.50
2018-03-04T18:45:33.582Z,81.60
2018-03-04T18:48:02.954Z,81.70
2018-03-04T18:50:30.506Z,81.70
2018-03-04T18:52:58.075Z,81.60
2018-03-04T18:55:25.653Z,81.60
2018-03-04T18:57:53.937Z,81.60
2018-03-04T19:00:21.574Z,81.60
2018-03-04T19:02:49.168Z,81.40
2018-03-04T19:05:17.130Z,81.10
2018-03-04T19:07:45.326Z,81.20
2018-03-04T19:10:13.132Z,80.90
2018-03-04T19:12:40.913Z,80.70
2018-03-04T19:15:08.494Z,80.70
2018-03-04T19:17:36.074Z,80.90
2018-03-04T19:20:04.042Z,80.80
2018-03-04T19:22:37.431Z,81.10
2018-03-04T19:25:06.314Z,81.00
2018-03-04T19:27:33.915Z,80.90
2018-03-04T19:30:01.469Z,80.80
2018-03-04T19:32:29.224Z,80.60
2018-03-04T19:34:56.781Z,80.50
2018-03-04T19:37:24.385Z,80.30
2018-03-04T19:39:51.966Z,80.30
2018-03-04T19:42:19.486Z,80.10
2018-03-04T19:44:47.049Z,79.90
2018-03-04T19:47:15.556Z,80.00
2018-03-04T19:49:43.374Z,80.20
2018-03-04T19:52:11.338Z,80.70
2018-03-04T19:54:39.800Z,80.70
2018-03-04T19:57:07.730Z,80.80
2018-03-04T19:59:36.235Z,80.80
2018-03-04T20:02:04.644Z,81.00
2018-03-04T20:04:32.202Z,81.00
2018-03-04T20:07:00.237Z,80.80
2018-03-04T20:09:27.750Z,80.80
2018-03-04T20:11:55.338Z,80.80
2018-03-04T20:14:23.687Z,80.80
2018-03-04T20:16:52.038Z,81.00
2018-03-04T20:19:20.009Z,81.20
2018-03-04T20:21:47.995Z,81.20
2018-03-04T20:24:16.837Z,81.20
2018-03-04T20:26:44.436Z,81.40
2018-03-04T20:29:14.169Z,81.20
2018-03-04T20:31:43.265Z,81.20
2018-03-04T20:34:11.085Z,81.20
2018-03-04T20:36:39.703Z,81.70
2018-03-04T20:39:07.341Z,82.10
2018-03-04T20:41:35.408Z,82.20
2018-03-04T20:44:03.452Z,82.30
2018-03-04T20:46:32.303Z,82.60
2018-03-04T20:48:59.981Z,82.50
2018-03-04T20:51:28.078Z,82.20
2018-03-04T20:53:56.382Z,82.40
2018-03-04T20:56:24.386Z,82.50
2018-03-04T20:58:51.954Z,82.50
2018-03-04T21:01:19.658Z,82.00
2018-03-04T21:03:47.250Z,82.00
2018-03-04T21:06:16.702Z,82.00
2018-03-04T21:08:45.213Z,81.70
2018-03-04T21:11:12.846Z,81.20
2018-03-04T21:13:41.916Z,80.80
2018-03-04T21:16:10.133Z,80.40
2018-03-04T21:18:37.727Z,80.20
2018-03-04T21:21:05.684Z,80.10
2018-03-04T21:23:36.784Z,80.30
2018-03-04T21:26:06.966Z,80.30
2018-03-04T21:28:37.402Z,80.10
2018-03-04T21:31:06.785Z,80.10
2018-03-04T21:36:22.595Z,80.10
2018-03-04T21:38:57.610Z,80.20
2018-03-04T21:41:27.498Z,80.10
2018-03-04T21:43:56.790Z,80.10
2018-03-04T21:46:37.137Z,80.00
2018-03-04T21:49:19.018Z,79.70
2018-03-04T21:51:47.336Z,79.60
2018-03-04T21:54:15.822Z,79.80
2018-03-04T21:56:45.630Z,79.60
2018-03-04T21:59:13.327Z,79.60
2018-03-04T22:01:41.010Z,79.80
2018-03-04T22:04:08.589Z,79.80
2018-03-04T22:06:36.450Z,79.80
2018-03-04T22:09:04.008Z,79.80
2018-03-04T22:11:31.560Z,80.20
2018-03-04T22:13:59.106Z,80.60
2018-03-04T22:16:26.679Z,80.60
2018-03-04T22:19:09.460Z,80.90
2018-03-04T22:21:39.903Z,81.30
2018-03-04T22:24:07.876Z,82.10
2018-03-04T22:26:35.906Z,82.30
2018-03-04T22:29:03.523Z,82.30
2018-03-04T22:31:32.687Z,82.70
2018-03-04T22:34:00.340Z,82.60
2018-03-04T22:36:27.943Z,82.60
2018-03-04T22:38:55.563Z,83.00
2018-03-04T22:41:23.156Z,82.80
2018-03-04T22:43:50.793Z,82.90
2018-03-04T22:46:19.020Z,83.10
2018-03-04T22:48:46.726Z,83.10
2018-03-04T22:51:14.737Z,83.70
2018-03-04T22:53:42.290Z,83.70
2018-03-04T22:56:09.861Z,84.50
2018-03-04T22:58:37.459Z,85.30
2018-03-04T23:01:05.697Z,86.10
2018-03-04T23:03:33.281Z,87.00
2018-03-04T23:06:00.909Z,88.30
2018-03-04T23:08:28.430Z,88.30
2018-03-04T23:10:57.049Z,90.20
2018-03-04T23:13:24.976Z,90.20
2018-03-04T23:15:52.545Z,90.70
2018-03-04T23:18:20.481Z,92.00
2018-03-04T23:20:48.049Z,92.00
2018-03-04T23:23:15.604Z,92.30
2018-03-04T23:25:43.154Z,92.50
2018-03-04T23:28:10.780Z,92.30
2018-03-04T23:30:38.990Z,92.40
2018-03-04T23:33:06.774Z,92.60
2018-03-04T23:35:34.345Z,92.90
2018-03-04T23:38:01.892Z,93.20
2018-03-04T23:40:29.447Z,93.40
2018-03-04T23:42:56.997Z,93.50
2018-03-04T23:45:24.574Z,93.60
2018-03-04T23:47:52.104Z,93.80
2018-03-04T23:50:19.679Z,93.70
2018-03-04T23:52:47.216Z,93.80
2018-03-04T23:55:14.792Z,93.80
2018-03-04T23:57:42.359Z,94.10
